Polfoss — V2PN7 — position and weather

sailwx.info

Track history (hours):
 
Tides and Currents Weather Stations Pressure Air Temp Water Temp Dewpoint Dewpoint Depression Visibility Wind Speed Wind Dir Waves Ship Positions

Polfoss

Last reported at 2016-May-06 14:33 UTC. Time now 2016-May-06 14:59 UTC.
Position N 52°28' E 004°40'.

Length 82 m; draft 4.5 m.

Type: Cargo ship. MMSI: 305081000.

Date/timePositionNaut miles runAvg speedWind from/ knotsBaromVisibWave heightAir tempDewpointWater temp
2016-May-06 14:33N 52°28' E 004°40'0 0.0
2016-May-06 13:33N 52°28' E 004°40'0 0.0
2016-May-06 12:33N 52°28' E 004°40'0 0.0
2016-May-06 11:33N 52°28' E 004°40'0 0.0
2016-May-06 10:33N 52°28' E 004°40'0 0.0
2016-May-06 09:33N 52°28' E 004°40'2 1.9
2016-May-06 08:33N 52°28' E 004°37'5 4.8
2016-May-06 07:33N 52°30' E 004°29'1515.1
2016-May-06 06:33N 52°45' E 004°29'1413.9
2016-May-06 05:33N 52°59' E 004°30'1212.0
2016-May-06 04:33N 53°11' E 004°27'3113.5
2016-May-06 02:16N 53°41' E 004°42'1115.0
2016-May-06 01:33N 53°51' E 004°49'1515.0
2016-May-06 00:33N 54°04' E 004°58'1515.0
2016-May-05 23:33N 54°18' E 005°11'1514.9
2016-May-05 22:32N 54°30' E 005°25'8714.5
2016-May-05 16:32N 55°45' E 006°45'1414.4
2016-May-05 15:33N 55°57' E 006°58'1414.3
2016-May-05 14:33N 56°09' E 007°12'1414.2
2016-May-05 13:32N 56°21' E 007°26'11414.0
2016-May-05 05:25N 57°42' E 009°53'1313.8
2016-May-05 04:30N 57°45' E 010°16'1313.4
2016-May-05 03:33N 57°48' E 010°39'1312.9
2016-May-05 02:33N 57°41' E 011°00'1414.0
2016-May-05 01:33N 57°32' E 011°19'1414.4
2016-May-05 00:33N 57°19' E 011°33'1515.1
2016-May-04 23:33N 57°05' E 011°42'1514.8
2016-May-04 22:33N 56°51' E 011°51'1414.0
2016-May-04 21:33N 56°38' E 011°58'1313.3
2016-May-04 20:33N 56°25' E 012°07'1313.0
2016-May-04 19:33N 56°15' E 012°21'1211.6
2016-May-04 18:33N 56°06' E 012°35'10 9.8
2016-May-04 17:33N 55°57' E 012°43'7 7.2
2016-May-04 16:33N 55°51' E 012°50'0 0.1
2016-May-04 15:33N 55°51' E 012°50'0 0.0
2016-May-04 14:33N 55°51' E 012°50'0 0.0
2016-May-04 13:33N 55°51' E 012°50'0 0.0
2016-May-04 12:33N 55°51' E 012°50'0 0.0
2016-May-04 11:33N 55°51' E 012°50'0 0.0
2016-May-04 10:33N 55°51' E 012°50'0 0.0
2016-May-04 09:33N 55°51' E 012°50'0 0.0
2016-May-04 08:33N 55°51' E 012°50'0 0.0
2016-May-04 07:33N 55°51' E 012°50'0 0.0
2016-May-04 06:33N 55°51' E 012°50'0 0.0
2016-May-04 05:33N 55°51' E 012°50'0 0.0
2016-May-04 04:33N 55°51' E 012°50'0 0.0
2016-May-04 03:33N 55°51' E 012°50'0 0.0
2016-May-04 02:33N 55°51' E 012°50'0 0.0
2016-May-04 01:33N 55°51' E 012°50'0 0.0
2016-May-04 00:33N 55°51' E 012°50'0 0.0
2016-May-03 23:33N 55°51' E 012°50'0 0.0
2016-May-03 22:33N 55°51' E 012°50'0 0.0
2016-May-03 21:33N 55°51' E 012°50'0 0.0
2016-May-03 20:33N 55°51' E 012°50'0 0.0
2016-May-03 19:33N 55°51' E 012°50'0 0.0
2016-May-03 18:33N 55°51' E 012°50'0 0.0
2016-May-03 17:33N 55°51' E 012°50'0 0.0
2016-May-03 16:33N 55°51' E 012°50'0 0.0
2016-May-03 15:33N 55°51' E 012°50'0 0.0
2016-May-03 14:33N 55°51' E 012°50'0 0.0
2016-May-03 13:33N 55°51' E 012°50'0 0.0
2016-May-03 12:33N 55°51' E 012°50'0 0.0
2016-May-03 11:33N 55°51' E 012°50'0 0.0
2016-May-03 10:33N 55°51' E 012°50'0 0.0
2016-May-03 09:34N 55°51' E 012°50'0 0.0
2016-May-03 08:33N 55°51' E 012°50'0 0.0
2016-May-03 07:33N 55°51' E 012°50'0 0.0
2016-May-03 06:33N 55°51' E 012°50'0 0.0
2016-May-03 05:33N 55°51' E 012°50'0 0.0
2016-May-03 04:33N 55°51' E 012°50'0 0.0
2016-May-03 03:33N 55°51' E 012°50'0 0.0
2016-May-03 02:33N 55°51' E 012°50'0 0.0
2016-May-03 01:33N 55°51' E 012°50'0 0.0
2016-May-03 00:33N 55°51' E 012°50'0 0.0
2016-May-02 23:33N 55°51' E 012°50'0 0.0
2016-May-02 22:33N 55°51' E 012°50'0 0.0
2016-May-02 21:33N 55°51' E 012°50'0 0.0
2016-May-02 20:34N 55°51' E 012°50'0 0.0
2016-May-02 19:33N 55°51' E 012°50'0 0.0
2016-May-02 18:33N 55°51' E 012°50'0 0.0
2016-May-02 17:33N 55°51' E 012°50'0 0.0
2016-May-02 16:33N 55°51' E 012°50'0 0.0
2016-May-02 15:33N 55°51' E 012°50'0 0.0
2016-May-02 14:33N 55°51' E 012°50'0 0.0
2016-May-02 13:33N 55°51' E 012°50'0 0.0
2016-May-02 12:33N 55°51' E 012°50'0 0.0
2016-May-02 11:33N 55°51' E 012°50'0 0.0
2016-May-02 10:33N 55°51' E 012°50'0 0.0
2016-May-02 09:34N 55°51' E 012°50'0 0.0
2016-May-02 08:33N 55°51' E 012°50'0 0.0
2016-May-02 07:33N 55°51' E 012°50'0 0.0
2016-May-02 06:33N 55°51' E 012°50'0 0.0
2016-May-02 05:33N 55°51' E 012°50'0 0.0
2016-May-02 04:33N 55°51' E 012°50'0 0.0
2016-May-02 03:34N 55°51' E 012°50'0 0.0
2016-May-02 02:33N 55°51' E 012°50'0 0.0
2016-May-02 01:33N 55°51' E 012°50'0 0.0
2016-May-02 00:33N 55°51' E 012°50'0 0.0
2016-May-01 23:33N 55°51' E 012°50'0 0.0
2016-May-01 22:33N 55°51' E 012°50'0 0.0
2016-May-01 21:33N 55°51' E 012°50'0 0.0
2016-May-01 20:33N 55°51' E 012°50'0 0.0
2016-May-01 19:33N 55°51' E 012°50'0 0.0
2016-May-01 18:33N 55°51' E 012°50'0 0.0
2016-May-01 17:33N 55°51' E 012°50'0 0.0
2016-May-01 16:33N 55°51' E 012°50'0 0.0
2016-May-01 15:33N 55°51' E 012°50'0 0.0
2016-May-01 14:33N 55°51' E 012°50'0 0.0
2016-May-01 13:33N 55°51' E 012°50'0 0.0
2016-May-01 12:33N 55°51' E 012°50'0 0.0
2016-May-01 11:33N 55°51' E 012°50'0 0.0
2016-May-01 10:33N 55°51' E 012°50'0 0.0
2016-May-01 09:33N 55°51' E 012°50'0 0.0
2016-May-01 08:33N 55°51' E 012°50'0 0.0
2016-May-01 07:33N 55°51' E 012°50'0 0.0
2016-May-01 06:33N 55°51' E 012°50'0 0.0
2016-May-01 05:33N 55°51' E 012°50'0 0.0
2016-May-01 04:33N 55°51' E 012°50'0 0.0
2016-May-01 03:33N 55°51' E 012°50'0 0.0
2016-May-01 02:33N 55°51' E 012°50'0 0.0
2016-May-01 01:33N 55°51' E 012°50'0 0.0
2016-May-01 00:33N 55°51' E 012°50'0 0.0
2016-Apr-30 23:34N 55°51' E 012°50'0 0.0
2016-Apr-30 22:33N 55°51' E 012°50'0 0.0
2016-Apr-30 21:34N 55°51' E 012°50'0 0.0
2016-Apr-30 20:33N 55°51' E 012°50'0 0.0
2016-Apr-30 19:33N 55°51' E 012°50'0 0.0
2016-Apr-30 18:33N 55°51' E 012°50'0 0.0
2016-Apr-30 17:33N 55°51' E 012°50'0 0.0
2016-Apr-30 16:33N 55°51' E 012°50'0 0.0
2016-Apr-30 15:33N 55°51' E 012°50'0 0.0
2016-Apr-30 14:33N 55°51' E 012°50'0 0.0
2016-Apr-30 13:33N 55°51' E 012°50'0 0.0
2016-Apr-30 12:33N 55°51' E 012°50'0 0.0
2016-Apr-30 11:33N 55°51' E 012°50'0 0.0
2016-Apr-30 10:33N 55°51' E 012°50'0 0.0
2016-Apr-30 09:33N 55°51' E 012°50'0 0.0
2016-Apr-30 08:33N 55°51' E 012°50'0 0.0
2016-Apr-30 07:33N 55°51' E 012°50'0 0.0
2016-Apr-30 06:33N 55°51' E 012°50'0 0.0
2016-Apr-30 05:33N 55°51' E 012°50'0 0.0
2016-Apr-30 04:33N 55°51' E 012°50'0 0.0
2016-Apr-30 03:33N 55°51' E 012°50'0 0.0
2016-Apr-30 02:33N 55°51' E 012°50'0 0.0
2016-Apr-30 01:33N 55°51' E 012°50'0 0.0
2016-Apr-30 00:33N 55°51' E 012°50'0 0.0
2016-Apr-29 23:33N 55°51' E 012°50'0 0.0
2016-Apr-29 22:33N 55°51' E 012°50'0 0.0
2016-Apr-29 21:33N 55°51' E 012°50'0 0.0
2016-Apr-29 20:33N 55°51' E 012°50'0 0.0
2016-Apr-29 19:33N 55°51' E 012°50'0 0.0
2016-Apr-29 18:33N 55°51' E 012°50'0 0.0
2016-Apr-29 17:33N 55°51' E 012°50'0 0.0
2016-Apr-29 16:33N 55°51' E 012°50'0 0.0
2016-Apr-29 15:33N 55°51' E 012°50'0 0.0
2016-Apr-29 14:33N 55°51' E 012°50'0 0.0
2016-Apr-29 13:33N 55°51' E 012°50'0 0.0
2016-Apr-29 12:33N 55°51' E 012°50'0 0.0
2016-Apr-29 11:33N 55°51' E 012°50'0 0.0
2016-Apr-29 10:33N 55°51' E 012°50'0 0.0
2016-Apr-29 09:33N 55°51' E 012°50'0 0.0
2016-Apr-29 08:33N 55°51' E 012°50'0 0.0
2016-Apr-29 07:33N 55°51' E 012°50'0 0.0
2016-Apr-29 06:33N 55°51' E 012°50'0 0.0
2016-Apr-29 05:33N 55°51' E 012°50'0 0.0
2016-Apr-29 04:33N 55°51' E 012°50'0 0.0
2016-Apr-29 03:33N 55°51' E 012°50'0 0.0
2016-Apr-29 02:33N 55°51' E 012°50'0 0.0
2016-Apr-29 01:33N 55°51' E 012°50'0 0.0
2016-Apr-29 00:33N 55°51' E 012°50'0 0.0
2016-Apr-28 23:33N 55°51' E 012°50'0 0.0
2016-Apr-28 22:33N 55°51' E 012°50'0 0.0
2016-Apr-28 21:33N 55°51' E 012°50'0 0.0
2016-Apr-28 20:33N 55°51' E 012°50'0 0.0
2016-Apr-28 19:33N 55°51' E 012°50'0 0.0
2016-Apr-28 18:33N 55°51' E 012°50'0 0.1
2016-Apr-28 17:34N 55°51' E 012°50'0 0.1
2016-Apr-28 16:33N 55°51' E 012°50'0 0.0
2016-Apr-28 15:33N 55°51' E 012°50'0 0.0
2016-Apr-28 14:33N 55°51' E 012°50'0 0.0
2016-Apr-28 13:33N 55°51' E 012°50'0 0.0
2016-Apr-28 12:33N 55°51' E 012°50'0 0.0
2016-Apr-28 11:33N 55°51' E 012°50'0 0.0
2016-Apr-28 10:33N 55°51' E 012°50'0 0.0
2016-Apr-28 09:33N 55°51' E 012°50'0 0.0
2016-Apr-28 08:33N 55°51' E 012°50'0 0.0
2016-Apr-28 07:34N 55°51' E 012°50'0 0.0
2016-Apr-28 06:33N 55°51' E 012°50'0 0.0
2016-Apr-28 05:33N 55°51' E 012°50'0 0.0
2016-Apr-28 04:33N 55°51' E 012°50'0 0.0
2016-Apr-28 03:33N 55°51' E 012°50'0 0.0
2016-Apr-28 02:33N 55°51' E 012°50'0 0.0
2016-Apr-28 01:33N 55°51' E 012°50'0 0.0
2016-Apr-28 00:33N 55°51' E 012°50'0 0.0
2016-Apr-27 23:33N 55°51' E 012°50'0 0.0
2016-Apr-27 22:33N 55°51' E 012°50'0 0.0
2016-Apr-27 21:34N 55°51' E 012°50'0 0.0
2016-Apr-27 20:33N 55°51' E 012°50'0 0.0
2016-Apr-27 19:33N 55°51' E 012°50'0 0.0
2016-Apr-27 18:33N 55°51' E 012°50'0 0.0
2016-Apr-27 17:33N 55°51' E 012°50'0 0.0
2016-Apr-27 16:33N 55°51' E 012°50'0 0.0
2016-Apr-27 15:33N 55°51' E 012°50'0 0.0
2016-Apr-27 14:33N 55°51' E 012°50'0 0.0
2016-Apr-27 13:33N 55°51' E 012°50'0 0.0
2016-Apr-27 12:33N 55°51' E 012°50'0 0.0
2016-Apr-27 11:33N 55°51' E 012°50'0 0.0
2016-Apr-27 10:33N 55°51' E 012°50'0 0.0
2016-Apr-27 09:33N 55°51' E 012°50'0 0.0
2016-Apr-27 08:33N 55°51' E 012°50'0 0.0
2016-Apr-27 07:33N 55°51' E 012°50'0 0.0
2016-Apr-27 06:33N 55°51' E 012°50'0 0.0
2016-Apr-27 05:33N 55°51' E 012°50'0 0.0
2016-Apr-27 04:33N 55°51' E 012°50'0 0.0
2016-Apr-27 03:33N 55°51' E 012°50'0 0.0
2016-Apr-27 02:33N 55°51' E 012°50'0 0.0
2016-Apr-27 01:33N 55°51' E 012°50'0 0.0
2016-Apr-27 00:33N 55°51' E 012°50'0 0.0
2016-Apr-26 23:33N 55°51' E 012°50'0 0.0
2016-Apr-26 22:33N 55°51' E 012°50'0 0.0
2016-Apr-26 21:33N 55°51' E 012°50'0 0.0
2016-Apr-26 20:33N 55°51' E 012°50'0 0.0
2016-Apr-26 19:33N 55°51' E 012°50'0 0.0
2016-Apr-26 18:33N 55°51' E 012°50'0 0.0
2016-Apr-26 17:33N 55°51' E 012°50'0 0.0
2016-Apr-26 16:33N 55°51' E 012°50'0 0.0
2016-Apr-26 15:33N 55°51' E 012°50'0 0.0
2016-Apr-26 14:33N 55°51' E 012°50'  
Track history (hours):
 
Tides and Currents Weather Stations Pressure Air Temp Water Temp Dewpoint Dewpoint Depression Visibility Wind Speed Wind Dir Waves Ship Positions

Polfoss

Last reported at 2016-May-06 14:33 UTC. Time now 2016-May-06 14:59 UTC.
Position N 52°28' E 004°40'.

Length 82 m; draft 4.5 m.

Type: Cargo ship. MMSI: 305081000.

Date/timePositionNaut miles runAvg speedWind from/ knotsBaromVisibWave heightAir tempDewpointWater temp
2016-May-06 14:33N 52°28' E 004°40'0 0.0
2016-May-06 13:33N 52°28' E 004°40'0 0.0
2016-May-06 12:33N 52°28' E 004°40'0 0.0
2016-May-06 11:33N 52°28' E 004°40'0 0.0
2016-May-06 10:33N 52°28' E 004°40'0 0.0
2016-May-06 09:33N 52°28' E 004°40'2 1.9
2016-May-06 08:33N 52°28' E 004°37'5 4.8
2016-May-06 07:33N 52°30' E 004°29'1515.1
2016-May-06 06:33N 52°45' E 004°29'1413.9
2016-May-06 05:33N 52°59' E 004°30'1212.0
2016-May-06 04:33N 53°11' E 004°27'3113.5
2016-May-06 02:16N 53°41' E 004°42'1115.0
2016-May-06 01:33N 53°51' E 004°49'1515.0
2016-May-06 00:33N 54°04' E 004°58'1515.0
2016-May-05 23:33N 54°18' E 005°11'1514.9
2016-May-05 22:32N 54°30' E 005°25'8714.5
2016-May-05 16:32N 55°45' E 006°45'1414.4
2016-May-05 15:33N 55°57' E 006°58'1414.3
2016-May-05 14:33N 56°09' E 007°12'1414.2
2016-May-05 13:32N 56°21' E 007°26'11414.0
2016-May-05 05:25N 57°42' E 009°53'1313.8
2016-May-05 04:30N 57°45' E 010°16'1313.4
2016-May-05 03:33N 57°48' E 010°39'1312.9
2016-May-05 02:33N 57°41' E 011°00'1414.0
2016-May-05 01:33N 57°32' E 011°19'1414.4
2016-May-05 00:33N 57°19' E 011°33'1515.1
2016-May-04 23:33N 57°05' E 011°42'1514.8
2016-May-04 22:33N 56°51' E 011°51'1414.0
2016-May-04 21:33N 56°38' E 011°58'1313.3
2016-May-04 20:33N 56°25' E 012°07'1313.0
2016-May-04 19:33N 56°15' E 012°21'1211.6
2016-May-04 18:33N 56°06' E 012°35'10 9.8
2016-May-04 17:33N 55°57' E 012°43'7 7.2
2016-May-04 16:33N 55°51' E 012°50'0 0.1
2016-May-04 15:33N 55°51' E 012°50'0 0.0
2016-May-04 14:33N 55°51' E 012°50'0 0.0
2016-May-04 13:33N 55°51' E 012°50'0 0.0
2016-May-04 12:33N 55°51' E 012°50'0 0.0
2016-May-04 11:33N 55°51' E 012°50'0 0.0
2016-May-04 10:33N 55°51' E 012°50'0 0.0
2016-May-04 09:33N 55°51' E 012°50'0 0.0
2016-May-04 08:33N 55°51' E 012°50'0 0.0
2016-May-04 07:33N 55°51' E 012°50'0 0.0
2016-May-04 06:33N 55°51' E 012°50'0 0.0
2016-May-04 05:33N 55°51' E 012°50'0 0.0
2016-May-04 04:33N 55°51' E 012°50'0 0.0
2016-May-04 03:33N 55°51' E 012°50'0 0.0
2016-May-04 02:33N 55°51' E 012°50'0 0.0
2016-May-04 01:33N 55°51' E 012°50'0 0.0
2016-May-04 00:33N 55°51' E 012°50'0 0.0
2016-May-03 23:33N 55°51' E 012°50'0 0.0
2016-May-03 22:33N 55°51' E 012°50'0 0.0
2016-May-03 21:33N 55°51' E 012°50'0 0.0
2016-May-03 20:33N 55°51' E 012°50'0 0.0
2016-May-03 19:33N 55°51' E 012°50'0 0.0
2016-May-03 18:33N 55°51' E 012°50'0 0.0
2016-May-03 17:33N 55°51' E 012°50'0 0.0
2016-May-03 16:33N 55°51' E 012°50'0 0.0
2016-May-03 15:33N 55°51' E 012°50'0 0.0
2016-May-03 14:33N 55°51' E 012°50'0 0.0
2016-May-03 13:33N 55°51' E 012°50'0 0.0
2016-May-03 12:33N 55°51' E 012°50'0 0.0
2016-May-03 11:33N 55°51' E 012°50'0 0.0
2016-May-03 10:33N 55°51' E 012°50'0 0.0
2016-May-03 09:34N 55°51' E 012°50'0 0.0
2016-May-03 08:33N 55°51' E 012°50'0 0.0
2016-May-03 07:33N 55°51' E 012°50'0 0.0
2016-May-03 06:33N 55°51' E 012°50'0 0.0
2016-May-03 05:33N 55°51' E 012°50'0 0.0
2016-May-03 04:33N 55°51' E 012°50'0 0.0
2016-May-03 03:33N 55°51' E 012°50'0 0.0
2016-May-03 02:33N 55°51' E 012°50'0 0.0
2016-May-03 01:33N 55°51' E 012°50'0 0.0
2016-May-03 00:33N 55°51' E 012°50'0 0.0
2016-May-02 23:33N 55°51' E 012°50'0 0.0
2016-May-02 22:33N 55°51' E 012°50'0 0.0
2016-May-02 21:33N 55°51' E 012°50'0 0.0
2016-May-02 20:34N 55°51' E 012°50'0 0.0
2016-May-02 19:33N 55°51' E 012°50'0 0.0
2016-May-02 18:33N 55°51' E 012°50'0 0.0
2016-May-02 17:33N 55°51' E 012°50'0 0.0
2016-May-02 16:33N 55°51' E 012°50'0 0.0
2016-May-02 15:33N 55°51' E 012°50'0 0.0
2016-May-02 14:33N 55°51' E 012°50'0 0.0
2016-May-02 13:33N 55°51' E 012°50'0 0.0
2016-May-02 12:33N 55°51' E 012°50'0 0.0
2016-May-02 11:33N 55°51' E 012°50'0 0.0
2016-May-02 10:33N 55°51' E 012°50'0 0.0
2016-May-02 09:34N 55°51' E 012°50'0 0.0
2016-May-02 08:33N 55°51' E 012°50'0 0.0
2016-May-02 07:33N 55°51' E 012°50'0 0.0
2016-May-02 06:33N 55°51' E 012°50'0 0.0
2016-May-02 05:33N 55°51' E 012°50'0 0.0
2016-May-02 04:33N 55°51' E 012°50'0 0.0
2016-May-02 03:34N 55°51' E 012°50'0 0.0
2016-May-02 02:33N 55°51' E 012°50'0 0.0
2016-May-02 01:33N 55°51' E 012°50'0 0.0
2016-May-02 00:33N 55°51' E 012°50'0 0.0
2016-May-01 23:33N 55°51' E 012°50'0 0.0
2016-May-01 22:33N 55°51' E 012°50'0 0.0
2016-May-01 21:33N 55°51' E 012°50'0 0.0
2016-May-01 20:33N 55°51' E 012°50'0 0.0
2016-May-01 19:33N 55°51' E 012°50'0 0.0
2016-May-01 18:33N 55°51' E 012°50'0 0.0
2016-May-01 17:33N 55°51' E 012°50'0 0.0
2016-May-01 16:33N 55°51' E 012°50'0 0.0
2016-May-01 15:33N 55°51' E 012°50'0 0.0
2016-May-01 14:33N 55°51' E 012°50'0 0.0
2016-May-01 13:33N 55°51' E 012°50'0 0.0
2016-May-01 12:33N 55°51' E 012°50'0 0.0
2016-May-01 11:33N 55°51' E 012°50'0 0.0
2016-May-01 10:33N 55°51' E 012°50'0 0.0
2016-May-01 09:33N 55°51' E 012°50'0 0.0
2016-May-01 08:33N 55°51' E 012°50'0 0.0
2016-May-01 07:33N 55°51' E 012°50'0 0.0
2016-May-01 06:33N 55°51' E 012°50'0 0.0
2016-May-01 05:33N 55°51' E 012°50'0 0.0
2016-May-01 04:33N 55°51' E 012°50'0 0.0
2016-May-01 03:33N 55°51' E 012°50'0 0.0
2016-May-01 02:33N 55°51' E 012°50'0 0.0
2016-May-01 01:33N 55°51' E 012°50'0 0.0
2016-May-01 00:33N 55°51' E 012°50'0 0.0
2016-Apr-30 23:34N 55°51' E 012°50'0 0.0
2016-Apr-30 22:33N 55°51' E 012°50'0 0.0
2016-Apr-30 21:34N 55°51' E 012°50'0 0.0
2016-Apr-30 20:33N 55°51' E 012°50'0 0.0
2016-Apr-30 19:33N 55°51' E 012°50'0 0.0
2016-Apr-30 18:33N 55°51' E 012°50'0 0.0
2016-Apr-30 17:33N 55°51' E 012°50'0 0.0
2016-Apr-30 16:33N 55°51' E 012°50'0 0.0
2016-Apr-30 15:33N 55°51' E 012°50'0 0.0
2016-Apr-30 14:33N 55°51' E 012°50'0 0.0
2016-Apr-30 13:33N 55°51' E 012°50'0 0.0
2016-Apr-30 12:33N 55°51' E 012°50'0 0.0
2016-Apr-30 11:33N 55°51' E 012°50'0 0.0
2016-Apr-30 10:33N 55°51' E 012°50'0 0.0
2016-Apr-30 09:33N 55°51' E 012°50'0 0.0
2016-Apr-30 08:33N 55°51' E 012°50'0 0.0
2016-Apr-30 07:33N 55°51' E 012°50'0 0.0
2016-Apr-30 06:33N 55°51' E 012°50'0 0.0
2016-Apr-30 05:33N 55°51' E 012°50'0 0.0
2016-Apr-30 04:33N 55°51' E 012°50'0 0.0
2016-Apr-30 03:33N 55°51' E 012°50'0 0.0
2016-Apr-30 02:33N 55°51' E 012°50'0 0.0
2016-Apr-30 01:33N 55°51' E 012°50'0 0.0
2016-Apr-30 00:33N 55°51' E 012°50'0 0.0
2016-Apr-29 23:33N 55°51' E 012°50'0 0.0
2016-Apr-29 22:33N 55°51' E 012°50'0 0.0
2016-Apr-29 21:33N 55°51' E 012°50'0 0.0
2016-Apr-29 20:33N 55°51' E 012°50'0 0.0
2016-Apr-29 19:33N 55°51' E 012°50'0 0.0
2016-Apr-29 18:33N 55°51' E 012°50'0 0.0
2016-Apr-29 17:33N 55°51' E 012°50'0 0.0
2016-Apr-29 16:33N 55°51' E 012°50'0 0.0
2016-Apr-29 15:33N 55°51' E 012°50'0 0.0
2016-Apr-29 14:33N 55°51' E 012°50'0 0.0
2016-Apr-29 13:33N 55°51' E 012°50'0 0.0
2016-Apr-29 12:33N 55°51' E 012°50'0 0.0
2016-Apr-29 11:33N 55°51' E 012°50'0 0.0
2016-Apr-29 10:33N 55°51' E 012°50'0 0.0
2016-Apr-29 09:33N 55°51' E 012°50'0 0.0
2016-Apr-29 08:33N 55°51' E 012°50'0 0.0
2016-Apr-29 07:33N 55°51' E 012°50'0 0.0
2016-Apr-29 06:33N 55°51' E 012°50'0 0.0
2016-Apr-29 05:33N 55°51' E 012°50'0 0.0
2016-Apr-29 04:33N 55°51' E 012°50'0 0.0
2016-Apr-29 03:33N 55°51' E 012°50'0 0.0
2016-Apr-29 02:33N 55°51' E 012°50'0 0.0
2016-Apr-29 01:33N 55°51' E 012°50'0 0.0
2016-Apr-29 00:33N 55°51' E 012°50'0 0.0
2016-Apr-28 23:33N 55°51' E 012°50'0 0.0
2016-Apr-28 22:33N 55°51' E 012°50'0 0.0
2016-Apr-28 21:33N 55°51' E 012°50'0 0.0
2016-Apr-28 20:33N 55°51' E 012°50'0 0.0
2016-Apr-28 19:33N 55°51' E 012°50'0 0.0
2016-Apr-28 18:33N 55°51' E 012°50'0 0.1
2016-Apr-28 17:34N 55°51' E 012°50'0 0.1
2016-Apr-28 16:33N 55°51' E 012°50'0 0.0
2016-Apr-28 15:33N 55°51' E 012°50'0 0.0
2016-Apr-28 14:33N 55°51' E 012°50'0 0.0
2016-Apr-28 13:33N 55°51' E 012°50'0 0.0
2016-Apr-28 12:33N 55°51' E 012°50'0 0.0
2016-Apr-28 11:33N 55°51' E 012°50'0 0.0
2016-Apr-28 10:33N 55°51' E 012°50'0 0.0
2016-Apr-28 09:33N 55°51' E 012°50'0 0.0
2016-Apr-28 08:33N 55°51' E 012°50'0 0.0
2016-Apr-28 07:34N 55°51' E 012°50'0 0.0
2016-Apr-28 06:33N 55°51' E 012°50'0 0.0
2016-Apr-28 05:33N 55°51' E 012°50'0 0.0
2016-Apr-28 04:33N 55°51' E 012°50'0 0.0
2016-Apr-28 03:33N 55°51' E 012°50'0 0.0
2016-Apr-28 02:33N 55°51' E 012°50'0 0.0
2016-Apr-28 01:33N 55°51' E 012°50'0 0.0
2016-Apr-28 00:33N 55°51' E 012°50'0 0.0
2016-Apr-27 23:33N 55°51' E 012°50'0 0.0
2016-Apr-27 22:33N 55°51' E 012°50'0 0.0
2016-Apr-27 21:34N 55°51' E 012°50'0 0.0
2016-Apr-27 20:33N 55°51' E 012°50'0 0.0
2016-Apr-27 19:33N 55°51' E 012°50'0 0.0
2016-Apr-27 18:33N 55°51' E 012°50'0 0.0
2016-Apr-27 17:33N 55°51' E 012°50'0 0.0
2016-Apr-27 16:33N 55°51' E 012°50'0 0.0
2016-Apr-27 15:33N 55°51' E 012°50'0 0.0
2016-Apr-27 14:33N 55°51' E 012°50'0 0.0
2016-Apr-27 13:33N 55°51' E 012°50'0 0.0
2016-Apr-27 12:33N 55°51' E 012°50'0 0.0
2016-Apr-27 11:33N 55°51' E 012°50'0 0.0
2016-Apr-27 10:33N 55°51' E 012°50'0 0.0
2016-Apr-27 09:33N 55°51' E 012°50'0 0.0
2016-Apr-27 08:33N 55°51' E 012°50'0 0.0
2016-Apr-27 07:33N 55°51' E 012°50'0 0.0
2016-Apr-27 06:33N 55°51' E 012°50'0 0.0
2016-Apr-27 05:33N 55°51' E 012°50'0 0.0
2016-Apr-27 04:33N 55°51' E 012°50'0 0.0
2016-Apr-27 03:33N 55°51' E 012°50'0 0.0
2016-Apr-27 02:33N 55°51' E 012°50'0 0.0
2016-Apr-27 01:33N 55°51' E 012°50'0 0.0
2016-Apr-27 00:33N 55°51' E 012°50'0 0.0
2016-Apr-26 23:33N 55°51' E 012°50'0 0.0
2016-Apr-26 22:33N 55°51' E 012°50'0 0.0
2016-Apr-26 21:33N 55°51' E 012°50'0 0.0
2016-Apr-26 20:33N 55°51' E 012°50'0 0.0
2016-Apr-26 19:33N 55°51' E 012°50'0 0.0
2016-Apr-26 18:33N 55°51' E 012°50'0 0.0
2016-Apr-26 17:33N 55°51' E 012°50'0 0.0
2016-Apr-26 16:33N 55°51' E 012°50'0 0.0
2016-Apr-26 15:33N 55°51' E 012°50'0 0.0
2016-Apr-26 14:33N 55°51' E 012°50'  

Dump ship's entire track history